sensor_id;sensor_type;location;lat;lon;timestamp;temperature;humidity
45319;DHT22;31057;48.498;32.260;2024-01-16T00:00:33;2.70;99.90
45319;DHT22;31057;48.498;32.260;2024-01-16T00:02:34;2.70;99.90
45319;DHT22;31057;48.498;32.260;2024-01-16T00:04:37;2.70;99.90
45319;DHT22;31057;48.498;32.260;2024-01-16T00:06:42;2.70;99.90
45319;DHT22;31057;48.498;32.260;2024-01-16T00:08:48;2.60;99.90
45319;DHT22;31057;48.498;32.260;2024-01-16T00:10:50;2.60;99.90
45319;DHT22;31057;48.498;32.260;2024-01-16T00:12:52;2.60;99.90
45319;DHT22;31057;48.498;32.260;2024-01-16T00:14:54;2.60;99.90
45319;DHT22;31057;48.498;32.260;2024-01-16T00:16:56;2.60;99.90
45319;DHT22;31057;48.498;32.260;2024-01-16T00:18:59;2.60;99.90
45319;DHT22;31057;48.498;32.260;2024-01-16T00:21:01;2.50;99.90
45319;DHT22;31057;48.498;32.260;2024-01-16T00:23:06;2.60;99.90
45319;DHT22;31057;48.498;32.260;2024-01-16T00:25:08;2.60;99.90
45319;DHT22;31057;48.498;32.260;2024-01-16T00:27:10;2.70;99.90
45319;DHT22;31057;48.498;32.260;2024-01-16T00:29:12;2.70;99.90
45319;DHT22;31057;48.498;32.260;2024-01-16T00:31:14;2.70;99.90
45319;DHT22;31057;48.498;32.260;2024-01-16T00:33:16;2.70;99.90
45319;DHT22;31057;48.498;32.260;2024-01-16T00:35:19;2.80;99.90
45319;DHT22;31057;48.498;32.260;2024-01-16T00:37:21;2.70;99.90
45319;DHT22;31057;48.498;32.260;2024-01-16T00:39:22;2.90;99.90
45319;DHT22;31057;48.498;32.260;2024-01-16T00:41:24;2.70;99.90
45319;DHT22;31057;48.498;32.260;2024-01-16T00:43:26;2.70;99.90
45319;DHT22;31057;48.498;32.260;2024-01-16T00:45:28;2.70;99.90
45319;DHT22;31057;48.498;32.260;2024-01-16T00:47:30;2.80;99.90
45319;DHT22;31057;48.498;32.260;2024-01-16T00:49:32;2.70;99.90
45319;DHT22;31057;48.498;32.260;2024-01-16T00:51:34;2.70;99.90
45319;DHT22;31057;48.498;32.260;2024-01-16T00:53:40;2.60;99.90
45319;DHT22;31057;48.498;32.260;2024-01-16T00:55:42;2.50;99.90
45319;DHT22;31057;48.498;32.260;2024-01-16T00:57:44;2.50;99.90
45319;DHT22;31057;48.498;32.260;2024-01-16T00:59:46;2.50;99.90
45319;DHT22;31057;48.498;32.260;2024-01-16T01:01:48;2.40;99.90
45319;DHT22;31057;48.498;32.260;2024-01-16T01:03:50;2.40;99.90
45319;DHT22;31057;48.498;32.260;2024-01-16T01:05:52;2.40;99.90
45319;DHT22;31057;48.498;32.260;2024-01-16T01:07:55;2.40;99.90
45319;DHT22;31057;48.498;32.260;2024-01-16T01:09:56;2.40;99.90
45319;DHT22;31057;48.498;32.260;2024-01-16T01:11:59;2.40;99.90
45319;DHT22;31057;48.498;32.260;2024-01-16T01:14:01;2.40;99.90
45319;DHT22;31057;48.498;32.260;2024-01-16T01:16:03;2.40;99.90
45319;DHT22;31057;48.498;32.260;2024-01-16T01:18:05;2.30;99.90
45319;DHT22;31057;48.498;32.260;2024-01-16T01:20:08;2.30;99.90
45319;DHT22;31057;48.498;32.260;2024-01-16T01:22:10;2.30;99.90
45319;DHT22;31057;48.498;32.260;2024-01-16T01:24:12;2.20;99.90
45319;DHT22;31057;48.498;32.260;2024-01-16T01:26:14;2.20;99.90
45319;DHT22;31057;48.498;32.260;2024-01-16T01:28:16;2.40;99.90
45319;DHT22;31057;48.498;32.260;2024-01-16T01:30:18;2.40;99.90
45319;DHT22;31057;48.498;32.260;2024-01-16T01:32:20;2.40;99.90
45319;DHT22;31057;48.498;32.260;2024-01-16T01:34:22;2.40;99.90
45319;DHT22;31057;48.498;32.260;2024-01-16T01:36:24;2.40;99.90
45319;DHT22;31057;48.498;32.260;2024-01-16T01:38:26;2.40;99.90
45319;DHT22;31057;48.498;32.260;2024-01-16T01:40:28;2.40;99.90
45319;DHT22;31057;48.498;32.260;2024-01-16T01:42:30;2.40;99.90
45319;DHT22;31057;48.498;32.260;2024-01-16T01:44:31;2.40;99.90
45319;DHT22;31057;48.498;32.260;2024-01-16T01:46:34;2.40;99.90
45319;DHT22;31057;48.498;32.260;2024-01-16T01:48:42;2.30;99.90
45319;DHT22;31057;48.498;32.260;2024-01-16T01:50:45;2.40;99.90
45319;DHT22;31057;48.498;32.260;2024-01-16T01:52:47;2.40;99.90
45319;DHT22;31057;48.498;32.260;2024-01-16T01:54:49;2.40;99.90
45319;DHT22;31057;48.498;32.260;2024-01-16T01:56:52;2.40;99.90
45319;DHT22;31057;48.498;32.260;2024-01-16T01:58:55;2.30;99.90
45319;DHT22;31057;48.498;32.260;2024-01-16T02:00:58;2.30;99.90
45319;DHT22;31057;48.498;32.260;2024-01-16T02:03:00;2.30;99.90
45319;DHT22;31057;48.498;32.260;2024-01-16T02:05:02;2.30;99.90
45319;DHT22;31057;48.498;32.260;2024-01-16T02:07:05;2.30;99.90
45319;DHT22;31057;48.498;32.260;2024-01-16T02:09:07;2.30;99.90
45319;DHT22;31057;48.498;32.260;2024-01-16T02:11:09;2.30;99.90
45319;DHT22;31057;48.498;32.260;2024-01-16T02:13:11;2.20;99.90
45319;DHT22;31057;48.498;32.260;2024-01-16T02:15:13;2.20;99.90
45319;DHT22;31057;48.498;32.260;2024-01-16T02:17:16;2.20;99.90
45319;DHT22;31057;48.498;32.260;2024-01-16T02:19:18;2.20;99.90
45319;DHT22;31057;48.498;32.260;2024-01-16T02:21:25;2.20;99.90
45319;DHT22;31057;48.498;32.260;2024-01-16T02:23:27;2.20;99.90
45319;DHT22;31057;48.498;32.260;2024-01-16T02:25:30;2.30;99.90
45319;DHT22;31057;48.498;32.260;2024-01-16T02:27:32;2.30;99.90
45319;DHT22;31057;48.498;32.260;2024-01-16T02:29:33;2.20;99.90
45319;DHT22;31057;48.498;32.260;2024-01-16T02:31:36;2.20;99.90
45319;DHT22;31057;48.498;32.260;2024-01-16T02:33:39;2.20;99.90
45319;DHT22;31057;48.498;32.260;2024-01-16T02:35:41;2.20;99.90
45319;DHT22;31057;48.498;32.260;2024-01-16T02:37:43;2.20;99.90
45319;DHT22;31057;48.498;32.260;2024-01-16T02:39:45;2.20;99.90
45319;DHT22;31057;48.498;32.260;2024-01-16T02:41:47;2.20;99.90
45319;DHT22;31057;48.498;32.260;2024-01-16T02:43:49;2.10;99.90
45319;DHT22;31057;48.498;32.260;2024-01-16T02:45:51;2.00;99.90
45319;DHT22;31057;48.498;32.260;2024-01-16T02:47:53;1.90;99.90
45319;DHT22;31057;48.498;32.260;2024-01-16T02:49:55;1.80;99.90
45319;DHT22;31057;48.498;32.260;2024-01-16T02:51:57;1.70;99.90
45319;DHT22;31057;48.498;32.260;2024-01-16T02:54:00;1.70;99.90
45319;DHT22;31057;48.498;32.260;2024-01-16T02:56:02;1.60;99.90
45319;DHT22;31057;48.498;32.260;2024-01-16T02:58:04;1.60;99.90
45319;DHT22;31057;48.498;32.260;2024-01-16T03:00:06;1.50;99.90
45319;DHT22;31057;48.498;32.260;2024-01-16T03:02:09;1.40;99.90
45319;DHT22;31057;48.498;32.260;2024-01-16T03:04:11;1.40;99.90
45319;DHT22;31057;48.498;32.260;2024-01-16T03:06:22;1.30;99.90
45319;DHT22;31057;48.498;32.260;2024-01-16T03:08:25;1.30;99.90
45319;DHT22;31057;48.498;32.260;2024-01-16T03:10:27;1.30;99.90
45319;DHT22;31057;48.498;32.260;2024-01-16T03:12:29;1.30;99.90
45319;DHT22;31057;48.498;32.260;2024-01-16T03:14:31;1.30;99.90
45319;DHT22;31057;48.498;32.260;2024-01-16T03:16:35;1.20;99.90
45319;DHT22;31057;48.498;32.260;2024-01-16T03:18:37;1.20;99.90
45319;DHT22;31057;48.498;32.260;2024-01-16T03:20:39;1.10;99.90
45319;DHT22;31057;48.498;32.260;2024-01-16T03:22:41;1.10;99.90
45319;DHT22;31057;48.498;32.260;2024-01-16T03:24:43;1.20;99.90
45319;DHT22;31057;48.498;32.260;2024-01-16T03:26:45;1.10;99.90
45319;DHT22;31057;48.498;32.260;2024-01-16T03:28:47;1.10;99.90
45319;DHT22;31057;48.498;32.260;2024-01-16T03:30:49;1.10;99.90
45319;DHT22;31057;48.498;32.260;2024-01-16T03:32:51;1.00;99.90
45319;DHT22;31057;48.498;32.260;2024-01-16T03:34:53;1.00;99.90
45319;DHT22;31057;48.498;32.260;2024-01-16T03:36:55;1.10;99.90
45319;DHT22;31057;48.498;32.260;2024-01-16T03:38:57;1.10;99.90
45319;DHT22;31057;48.498;32.260;2024-01-16T03:40:59;1.10;99.90
45319;DHT22;31057;48.498;32.260;2024-01-16T03:43:01;1.10;99.90
45319;DHT22;31057;48.498;32.260;2024-01-16T03:45:05;1.00;99.90
45319;DHT22;31057;48.498;32.260;2024-01-16T03:47:07;1.00;99.90
45319;DHT22;31057;48.498;32.260;2024-01-16T03:49:10;1.00;99.90
45319;DHT22;31057;48.498;32.260;2024-01-16T03:51:11;1.00;99.90
45319;DHT22;31057;48.498;32.260;2024-01-16T03:53:17;1.00;99.90
45319;DHT22;31057;48.498;32.260;2024-01-16T03:55:19;1.00;99.90
45319;DHT22;31057;48.498;32.260;2024-01-16T03:57:20;0.90;99.90
45319;DHT22;31057;48.498;32.260;2024-01-16T03:59:22;0.90;99.90
45319;DHT22;31057;48.498;32.260;2024-01-16T04:01:34;0.90;99.90
45319;DHT22;31057;48.498;32.260;2024-01-16T04:03:39;0.90;99.90
45319;DHT22;31057;48.498;32.260;2024-01-16T04:05:41;0.90;99.90
45319;DHT22;31057;48.498;32.260;2024-01-16T04:07:43;0.90;99.90
45319;DHT22;31057;48.498;32.260;2024-01-16T04:09:45;1.00;99.90
45319;DHT22;31057;48.498;32.260;2024-01-16T04:11:49;1.00;99.90
45319;DHT22;31057;48.498;32.260;2024-01-16T04:13:52;1.00;99.90
45319;DHT22;31057;48.498;32.260;2024-01-16T04:15:53;1.00;99.90
45319;DHT22;31057;48.498;32.260;2024-01-16T04:17:55;1.00;99.90
45319;DHT22;31057;48.498;32.260;2024-01-16T04:19:57;0.90;99.90
45319;DHT22;31057;48.498;32.260;2024-01-16T04:22:00;0.80;99.90
45319;DHT22;31057;48.498;32.260;2024-01-16T04:24:02;0.90;99.90
45319;DHT22;31057;48.498;32.260;2024-01-16T04:26:04;1.00;99.90
45319;DHT22;31057;48.498;32.260;2024-01-16T04:28:06;0.90;99.90
45319;DHT22;31057;48.498;32.260;2024-01-16T04:30:08;0.90;99.90
45319;DHT22;31057;48.498;32.260;2024-01-16T04:32:10;1.00;99.90
45319;DHT22;31057;48.498;32.260;2024-01-16T04:34:12;1.00;99.90
45319;DHT22;31057;48.498;32.260;2024-01-16T04:36:14;0.90;99.90
45319;DHT22;31057;48.498;32.260;2024-01-16T04:38:16;0.90;99.90
45319;DHT22;31057;48.498;32.260;2024-01-16T04:40:18;1.00;99.90
45319;DHT22;31057;48.498;32.260;2024-01-16T04:42:20;1.10;99.90
45319;DHT22;31057;48.498;32.260;2024-01-16T04:44:22;1.00;99.90
45319;DHT22;31057;48.498;32.260;2024-01-16T04:46:24;1.00;99.90
45319;DHT22;31057;48.498;32.260;2024-01-16T04:48:26;1.00;99.90
45319;DHT22;31057;48.498;32.260;2024-01-16T04:50:28;1.00;99.90
45319;DHT22;31057;48.498;32.260;2024-01-16T04:52:33;1.10;99.90
45319;DHT22;31057;48.498;32.260;2024-01-16T04:54:35;1.00;99.90
45319;DHT22;31057;48.498;32.260;2024-01-16T04:56:38;1.00;99.90
45319;DHT22;31057;48.498;32.260;2024-01-16T04:58:39;0.90;99.90
45319;DHT22;31057;48.498;32.260;2024-01-16T05:00:41;0.90;99.90
45319;DHT22;31057;48.498;32.260;2024-01-16T05:02:43;0.90;99.90
45319;DHT22;31057;48.498;32.260;2024-01-16T05:04:45;0.90;99.90
45319;DHT22;31057;48.498;32.260;2024-01-16T05:06:51;0.90;99.90
45319;DHT22;31057;48.498;32.260;2024-01-16T05:08:53;0.80;99.90
45319;DHT22;31057;48.498;32.260;2024-01-16T05:10:55;0.80;99.90
45319;DHT22;31057;48.498;32.260;2024-01-16T05:12:57;0.90;99.90
45319;DHT22;31057;48.498;32.260;2024-01-16T05:14:59;0.80;99.90
45319;DHT22;31057;48.498;32.260;2024-01-16T05:17:01;0.80;99.90
45319;DHT22;31057;48.498;32.260;2024-01-16T05:19:03;0.90;99.90
45319;DHT22;31057;48.498;32.260;2024-01-16T05:21:05;0.90;99.90
45319;DHT22;31057;48.498;32.260;2024-01-16T05:23:08;0.90;99.90
45319;DHT22;31057;48.498;32.260;2024-01-16T05:25:10;0.90;99.90
45319;DHT22;31057;48.498;32.260;2024-01-16T05:27:12;0.90;99.90
45319;DHT22;31057;48.498;32.260;2024-01-16T05:29:14;0.90;99.90
45319;DHT22;31057;48.498;32.260;2024-01-16T05:31:16;0.90;99.90
45319;DHT22;31057;48.498;32.260;2024-01-16T05:33:18;0.90;99.90
45319;DHT22;31057;48.498;32.260;2024-01-16T05:35:20;0.90;99.90
45319;DHT22;31057;48.498;32.260;2024-01-16T05:37:26;0.90;99.90
45319;DHT22;31057;48.498;32.260;2024-01-16T05:39:31;0.90;99.90
45319;DHT22;31057;48.498;32.260;2024-01-16T05:41:33;0.90;99.90
45319;DHT22;31057;48.498;32.260;2024-01-16T05:43:35;0.90;99.90
45319;DHT22;31057;48.498;32.260;2024-01-16T05:45:37;0.90;99.90
45319;DHT22;31057;48.498;32.260;2024-01-16T05:47:39;0.90;99.90
45319;DHT22;31057;48.498;32.260;2024-01-16T05:49:41;0.80;99.90
45319;DHT22;31057;48.498;32.260;2024-01-16T05:51:44;0.90;99.90
45319;DHT22;31057;48.498;32.260;2024-01-16T05:53:46;0.80;99.90
45319;DHT22;31057;48.498;32.260;2024-01-16T05:55:48;0.90;99.90
45319;DHT22;31057;48.498;32.260;2024-01-16T05:57:50;0.80;99.90
45319;DHT22;31057;48.498;32.260;2024-01-16T05:59:52;0.90;99.90
45319;DHT22;31057;48.498;32.260;2024-01-16T06:01:54;0.80;99.90
45319;DHT22;31057;48.498;32.260;2024-01-16T06:03:56;0.80;99.90
45319;DHT22;31057;48.498;32.260;2024-01-16T06:05:58;0.90;99.90
45319;DHT22;31057;48.498;32.260;2024-01-16T06:08:00;0.90;99.90
45319;DHT22;31057;48.498;32.260;2024-01-16T06:10:02;0.90;99.90
45319;DHT22;31057;48.498;32.260;2024-01-16T06:12:07;0.90;99.90
45319;DHT22;31057;48.498;32.260;2024-01-16T06:14:09;0.80;99.90
45319;DHT22;31057;48.498;32.260;2024-01-16T06:16:13;0.80;99.90
45319;DHT22;31057;48.498;32.260;2024-01-16T06:18:15;0.80;99.90
45319;DHT22;31057;48.498;32.260;2024-01-16T06:20:17;0.80;99.90
45319;DHT22;31057;48.498;32.260;2024-01-16T06:22:19;0.80;99.90
45319;DHT22;31057;48.498;32.260;2024-01-16T06:24:21;0.90;99.90
45319;DHT22;31057;48.498;32.260;2024-01-16T06:26:23;0.90;99.90
45319;DHT22;31057;48.498;32.260;2024-01-16T06:28:25;0.90;99.90
45319;DHT22;31057;48.498;32.260;2024-01-16T06:30:27;0.90;99.90
45319;DHT22;31057;48.498;32.260;2024-01-16T06:32:29;1.00;99.90
45319;DHT22;31057;48.498;32.260;2024-01-16T06:34:31;1.00;99.90
45319;DHT22;31057;48.498;32.260;2024-01-16T06:36:33;1.10;99.90
45319;DHT22;31057;48.498;32.260;2024-01-16T06:38:35;1.10;99.90
45319;DHT22;31057;48.498;32.260;2024-01-16T06:40:39;1.10;99.90
45319;DHT22;31057;48.498;32.260;2024-01-16T06:42:42;1.10;99.90
45319;DHT22;31057;48.498;32.260;2024-01-16T06:44:44;1.00;99.90
45319;DHT22;31057;48.498;32.260;2024-01-16T06:46:46;1.00;99.90
45319;DHT22;31057;48.498;32.260;2024-01-16T06:48:48;0.90;99.90
45319;DHT22;31057;48.498;32.260;2024-01-16T06:50:50;1.00;99.90
45319;DHT22;31057;48.498;32.260;2024-01-16T06:52:52;0.90;99.90
45319;DHT22;31057;48.498;32.260;2024-01-16T06:54:54;0.90;99.90
45319;DHT22;31057;48.498;32.260;2024-01-16T06:56:56;1.00;99.90
45319;DHT22;31057;48.498;32.260;2024-01-16T06:58:58;1.00;99.90
45319;DHT22;31057;48.498;32.260;2024-01-16T07:01:00;1.00;99.90
45319;DHT22;31057;48.498;32.260;2024-01-16T07:03:02;1.00;99.90
45319;DHT22;31057;48.498;32.260;2024-01-16T07:05:04;0.80;99.90
45319;DHT22;31057;48.498;32.260;2024-01-16T07:07:06;0.80;99.90
45319;DHT22;31057;48.498;32.260;2024-01-16T07:09:09;0.70;99.90
45319;DHT22;31057;48.498;32.260;2024-01-16T07:11:12;0.80;99.90
45319;DHT22;31057;48.498;32.260;2024-01-16T07:13:15;0.70;99.90
45319;DHT22;31057;48.498;32.260;2024-01-16T07:15:17;0.80;99.90
45319;DHT22;31057;48.498;32.260;2024-01-16T07:17:20;0.90;99.90
45319;DHT22;31057;48.498;32.260;2024-01-16T07:19:22;0.80;99.90
45319;DHT22;31057;48.498;32.260;2024-01-16T07:21:24;0.80;99.90
45319;DHT22;31057;48.498;32.260;2024-01-16T07:23:25;0.70;99.90
45319;DHT22;31057;48.498;32.260;2024-01-16T07:25:27;0.80;99.90
45319;DHT22;31057;48.498;32.260;2024-01-16T07:27:29;0.70;99.90
45319;DHT22;31057;48.498;32.260;2024-01-16T07:29:31;0.70;99.90
45319;DHT22;31057;48.498;32.260;2024-01-16T07:31:33;0.70;99.90
45319;DHT22;31057;48.498;32.260;2024-01-16T07:33:35;0.80;99.90
45319;DHT22;31057;48.498;32.260;2024-01-16T07:35:37;0.80;99.90
45319;DHT22;31057;48.498;32.260;2024-01-16T07:37:42;0.60;99.90
45319;DHT22;31057;48.498;32.260;2024-01-16T07:39:44;0.70;99.90
45319;DHT22;31057;48.498;32.260;2024-01-16T07:41:46;0.60;99.90
45319;DHT22;31057;48.498;32.260;2024-01-16T07:43:48;0.60;99.90
45319;DHT22;31057;48.498;32.260;2024-01-16T07:45:50;0.80;99.90
45319;DHT22;31057;48.498;32.260;2024-01-16T07:47:52;0.60;99.90
45319;DHT22;31057;48.498;32.260;2024-01-16T07:49:54;0.70;99.90
45319;DHT22;31057;48.498;32.260;2024-01-16T07:51:57;0.70;99.90
45319;DHT22;31057;48.498;32.260;2024-01-16T07:54:08;0.70;99.90
45319;DHT22;31057;48.498;32.260;2024-01-16T07:56:10;0.70;99.90
45319;DHT22;31057;48.498;32.260;2024-01-16T07:58:13;0.60;99.90
45319;DHT22;31057;48.498;32.260;2024-01-16T08:00:15;0.50;99.90
45319;DHT22;31057;48.498;32.260;2024-01-16T08:02:17;0.50;99.90
45319;DHT22;31057;48.498;32.260;2024-01-16T08:04:21;0.60;99.90
45319;DHT22;31057;48.498;32.260;2024-01-16T08:06:23;0.50;99.90
45319;DHT22;31057;48.498;32.260;2024-01-16T08:08:25;0.60;99.90
45319;DHT22;31057;48.498;32.260;2024-01-16T08:10:27;0.60;99.90
45319;DHT22;31057;48.498;32.260;2024-01-16T08:12:29;0.90;99.90
45319;DHT22;31057;48.498;32.260;2024-01-16T08:14:31;0.90;99.90
45319;DHT22;31057;48.498;32.260;2024-01-16T08:16:33;0.80;99.90
45319;DHT22;31057;48.498;32.260;2024-01-16T08:18:34;0.80;99.90
45319;DHT22;31057;48.498;32.260;2024-01-16T08:20:37;0.90;99.90
45319;DHT22;31057;48.498;32.260;2024-01-16T08:22:38;1.00;99.90
45319;DHT22;31057;48.498;32.260;2024-01-16T08:24:40;1.00;99.90
45319;DHT22;31057;48.498;32.260;2024-01-16T08:26:42;0.90;99.90
45319;DHT22;31057;48.498;32.260;2024-01-16T08:28:44;0.90;99.90
45319;DHT22;31057;48.498;32.260;2024-01-16T08:30:46;0.90;99.90
45319;DHT22;31057;48.498;32.260;2024-01-16T08:32:48;0.90;99.90
45319;DHT22;31057;48.498;32.260;2024-01-16T08:34:50;0.90;99.90
45319;DHT22;31057;48.498;32.260;2024-01-16T08:36:53;0.90;99.90
45319;DHT22;31057;48.498;32.260;2024-01-16T08:38:58;0.90;99.90
45319;DHT22;31057;48.498;32.260;2024-01-16T08:41:00;0.90;99.90
45319;DHT22;31057;48.498;32.260;2024-01-16T08:43:02;0.80;99.90
45319;DHT22;31057;48.498;32.260;2024-01-16T08:45:05;0.90;99.90
45319;DHT22;31057;48.498;32.260;2024-01-16T08:47:07;0.70;99.90
45319;DHT22;31057;48.498;32.260;2024-01-16T08:49:09;0.90;99.90
45319;DHT22;31057;48.498;32.260;2024-01-16T08:51:13;0.90;99.90
45319;DHT22;31057;48.498;32.260;2024-01-16T08:53:15;0.90;99.90
45319;DHT22;31057;48.498;32.260;2024-01-16T08:55:17;0.90;99.90
45319;DHT22;31057;48.498;32.260;2024-01-16T08:57:20;1.00;99.90
45319;DHT22;31057;48.498;32.260;2024-01-16T08:59:25;1.10;99.90
45319;DHT22;31057;48.498;32.260;2024-01-16T09:01:28;1.10;99.90
45319;DHT22;31057;48.498;32.260;2024-01-16T09:03:29;1.20;99.90
45319;DHT22;31057;48.498;32.260;2024-01-16T09:05:31;1.10;99.90
45319;DHT22;31057;48.498;32.260;2024-01-16T09:07:38;1.10;99.90
45319;DHT22;31057;48.498;32.260;2024-01-16T09:09:40;1.00;99.90
45319;DHT22;31057;48.498;32.260;2024-01-16T09:11:45;1.20;99.90
45319;DHT22;31057;48.498;32.260;2024-01-16T09:13:46;1.20;99.90
45319;DHT22;31057;48.498;32.260;2024-01-16T09:15:48;1.20;99.90
45319;DHT22;31057;48.498;32.260;2024-01-16T09:17:51;1.10;99.90
45319;DHT22;31057;48.498;32.260;2024-01-16T09:19:53;1.20;99.90
45319;DHT22;31057;48.498;32.260;2024-01-16T09:21:55;1.40;99.90
45319;DHT22;31057;48.498;32.260;2024-01-16T09:23:57;1.10;99.90
45319;DHT22;31057;48.498;32.260;2024-01-16T09:26:01;1.10;99.90
45319;DHT22;31057;48.498;32.260;2024-01-16T09:28:04;1.10;99.90
45319;DHT22;31057;48.498;32.260;2024-01-16T09:30:06;1.10;99.90
45319;DHT22;31057;48.498;32.260;2024-01-16T09:32:09;1.30;99.90
45319;DHT22;31057;48.498;32.260;2024-01-16T09:34:11;1.20;99.90
45319;DHT22;31057;48.498;32.260;2024-01-16T09:36:15;1.40;99.90
45319;DHT22;31057;48.498;32.260;2024-01-16T09:38:17;1.20;99.90
45319;DHT22;31057;48.498;32.260;2024-01-16T09:40:23;1.20;99.90
45319;DHT22;31057;48.498;32.260;2024-01-16T09:42:25;1.20;99.90
45319;DHT22;31057;48.498;32.260;2024-01-16T09:44:28;1.20;99.90
45319;DHT22;31057;48.498;32.260;2024-01-16T09:46:31;1.20;99.90
45319;DHT22;31057;48.498;32.260;2024-01-16T09:48:34;1.40;99.90
45319;DHT22;31057;48.498;32.260;2024-01-16T09:50:36;1.20;99.90
45319;DHT22;31057;48.498;32.260;2024-01-16T09:52:39;1.10;99.90
45319;DHT22;31057;48.498;32.260;2024-01-16T09:54:41;1.10;99.90
45319;DHT22;31057;48.498;32.260;2024-01-16T09:56:43;1.00;99.90
45319;DHT22;31057;48.498;32.260;2024-01-16T09:58:48;1.00;99.90
45319;DHT22;31057;48.498;32.260;2024-01-16T10:00:51;1.00;99.90
45319;DHT22;31057;48.498;32.260;2024-01-16T10:02:54;0.90;99.90
45319;DHT22;31057;48.498;32.260;2024-01-16T10:05:01;0.80;99.90
45319;DHT22;31057;48.498;32.260;2024-01-16T10:07:03;0.70;99.90
45319;DHT22;31057;48.498;32.260;2024-01-16T10:09:05;0.70;99.90
45319;DHT22;31057;48.498;32.260;2024-01-16T10:11:09;0.60;99.90
45319;DHT22;31057;48.498;32.260;2024-01-16T10:13:12;0.60;99.90
45319;DHT22;31057;48.498;32.260;2024-01-16T10:15:15;0.70;99.90
45319;DHT22;31057;48.498;32.260;2024-01-16T10:17:18;0.80;99.90
45319;DHT22;31057;48.498;32.260;2024-01-16T10:19:21;0.90;99.90
45319;DHT22;31057;48.498;32.260;2024-01-16T10:21:35;0.80;99.90
45319;DHT22;31057;48.498;32.260;2024-01-16T10:23:37;0.80;99.90
45319;DHT22;31057;48.498;32.260;2024-01-16T10:25:44;0.80;99.90
45319;DHT22;31057;48.498;32.260;2024-01-16T10:27:46;0.90;99.90
45319;DHT22;31057;48.498;32.260;2024-01-16T10:29:57;0.90;99.90
45319;DHT22;31057;48.498;32.260;2024-01-16T10:31:59;0.90;99.90
45319;DHT22;31057;48.498;32.260;2024-01-16T10:34:01;0.80;99.90
45319;DHT22;31057;48.498;32.260;2024-01-16T10:36:10;0.90;99.90
45319;DHT22;31057;48.498;32.260;2024-01-16T10:38:19;1.00;99.90
45319;DHT22;31057;48.498;32.260;2024-01-16T10:40:24;0.80;99.90
45319;DHT22;31057;48.498;32.260;2024-01-16T10:42:32;0.90;99.90
45319;DHT22;31057;48.498;32.260;2024-01-16T10:44:34;0.90;99.90
45319;DHT22;31057;48.498;32.260;2024-01-16T10:46:38;0.90;99.90
45319;DHT22;31057;48.498;32.260;2024-01-16T10:48:44;0.90;99.90
45319;DHT22;31057;48.498;32.260;2024-01-16T10:50:46;0.90;99.90
45319;DHT22;31057;48.498;32.260;2024-01-16T10:52:49;1.00;99.90
45319;DHT22;31057;48.498;32.260;2024-01-16T10:54:52;1.10;99.90
45319;DHT22;31057;48.498;32.260;2024-01-16T10:56:57;1.10;99.90
45319;DHT22;31057;48.498;32.260;2024-01-16T11:01:10;1.40;99.90
45319;DHT22;31057;48.498;32.260;2024-01-16T11:03:15;1.10;99.90
45319;DHT22;31057;48.498;32.260;2024-01-16T11:05:19;1.10;99.90
45319;DHT22;31057;48.498;32.260;2024-01-16T11:07:23;1.10;99.90
45319;DHT22;31057;48.498;32.260;2024-01-16T11:09:27;1.10;99.90
45319;DHT22;31057;48.498;32.260;2024-01-16T11:11:29;1.00;99.90
45319;DHT22;31057;48.498;32.260;2024-01-16T11:13:35;1.10;99.90
45319;DHT22;31057;48.498;32.260;2024-01-16T11:15:37;1.00;99.90
45319;DHT22;31057;48.498;32.260;2024-01-16T11:17:40;0.90;99.90
45319;DHT22;31057;48.498;32.260;2024-01-16T11:19:43;0.80;99.90
45319;DHT22;31057;48.498;32.260;2024-01-16T11:22:05;0.80;99.90
45319;DHT22;31057;48.498;32.260;2024-01-16T11:24:07;0.80;99.90
45319;DHT22;31057;48.498;32.260;2024-01-16T11:28:27;0.80;99.90
45319;DHT22;31057;48.498;32.260;2024-01-16T11:30:30;1.00;99.90
45319;DHT22;31057;48.498;32.260;2024-01-16T11:32:36;0.80;99.90
45319;DHT22;31057;48.498;32.260;2024-01-16T11:36:42;0.90;99.90
45319;DHT22;31057;48.498;32.260;2024-01-16T11:38:45;0.80;99.90
45319;DHT22;31057;48.498;32.260;2024-01-16T11:40:47;0.90;99.90
45319;DHT22;31057;48.498;32.260;2024-01-16T11:42:53;0.90;99.90
45319;DHT22;31057;48.498;32.260;2024-01-16T11:44:56;0.80;99.90
45319;DHT22;31057;48.498;32.260;2024-01-16T11:47:01;0.90;99.90
45319;DHT22;31057;48.498;32.260;2024-01-16T11:49:04;0.80;99.90
45319;DHT22;31057;48.498;32.260;2024-01-16T11:51:22;0.80;99.90
45319;DHT22;31057;48.498;32.260;2024-01-16T11:55:33;0.80;99.90
45319;DHT22;31057;48.498;32.260;2024-01-16T11:57:52;0.80;99.90
45319;DHT22;31057;48.498;32.260;2024-01-16T12:00:02;0.80;99.90
45319;DHT22;31057;48.498;32.260;2024-01-16T12:04:59;0.90;99.90
45319;DHT22;31057;48.498;32.260;2024-01-16T12:07:06;0.90;99.90
45319;DHT22;31057;48.498;32.260;2024-01-16T12:11:18;0.80;99.90
45319;DHT22;31057;48.498;32.260;2024-01-16T12:13:21;0.80;99.90
45319;DHT22;31057;48.498;32.260;2024-01-16T12:15:23;0.70;99.90
45319;DHT22;31057;48.498;32.260;2024-01-16T12:17:25;0.70;99.90
45319;DHT22;31057;48.498;32.260;2024-01-16T12:19:27;0.70;99.90
45319;DHT22;31057;48.498;32.260;2024-01-16T12:21:29;0.70;99.90
45319;DHT22;31057;48.498;32.260;2024-01-16T12:23:31;0.70;99.90
45319;DHT22;31057;48.498;32.260;2024-01-16T12:25:33;0.70;99.90
45319;DHT22;31057;48.498;32.260;2024-01-16T12:28:05;0.70;99.90
45319;DHT22;31057;48.498;32.260;2024-01-16T12:30:08;0.70;99.90
45319;DHT22;31057;48.498;32.260;2024-01-16T12:32:10;0.80;99.90
45319;DHT22;31057;48.498;32.260;2024-01-16T12:34:13;0.70;99.90
45319;DHT22;31057;48.498;32.260;2024-01-16T12:36:15;0.70;99.90
45319;DHT22;31057;48.498;32.260;2024-01-16T12:38:17;0.70;99.90
45319;DHT22;31057;48.498;32.260;2024-01-16T12:40:19;0.70;99.90
45319;DHT22;31057;48.498;32.260;2024-01-16T12:42:22;0.70;99.90
45319;DHT22;31057;48.498;32.260;2024-01-16T12:44:27;0.70;99.90
45319;DHT22;31057;48.498;32.260;2024-01-16T12:46:29;0.70;99.90
45319;DHT22;31057;48.498;32.260;2024-01-16T12:48:30;0.70;99.90
45319;DHT22;31057;48.498;32.260;2024-01-16T12:50:32;0.70;99.90
45319;DHT22;31057;48.498;32.260;2024-01-16T12:52:34;0.70;99.90
45319;DHT22;31057;48.498;32.260;2024-01-16T12:54:36;0.70;99.90
45319;DHT22;31057;48.498;32.260;2024-01-16T12:56:38;0.70;99.90
45319;DHT22;31057;48.498;32.260;2024-01-16T12:58:40;0.70;99.90
45319;DHT22;31057;48.498;32.260;2024-01-16T13:00:43;0.80;99.90
45319;DHT22;31057;48.498;32.260;2024-01-16T13:02:49;0.80;99.90
45319;DHT22;31057;48.498;32.260;2024-01-16T13:05:00;0.80;99.90
45319;DHT22;31057;48.498;32.260;2024-01-16T13:07:05;0.80;99.90
45319;DHT22;31057;48.498;32.260;2024-01-16T13:09:10;0.80;99.90